createdAt,value
2017-12-05T00:00:11.667Z,5.89
2017-12-05T00:01:11.569Z,5.88
2017-12-05T00:02:11.494Z,5.88
2017-12-05T00:03:11.401Z,5.89
2017-12-05T00:04:11.308Z,5.91
2017-12-05T00:05:11.210Z,5.81
2017-12-05T00:06:11.117Z,5.92
2017-12-05T00:07:11.038Z,5.92
2017-12-05T00:08:10.945Z,5.89
2017-12-05T00:09:10.851Z,5.91
2017-12-05T00:10:10.763Z,5.88
2017-12-05T00:11:10.671Z,5.75
2017-12-05T00:12:10.584Z,5.86
2017-12-05T00:13:10.497Z,5.92
2017-12-05T00:14:10.404Z,5.96
2017-12-05T00:15:10.326Z,5.88
2017-12-05T00:16:10.222Z,5.89
2017-12-05T00:17:10.141Z,5.88
2017-12-05T00:18:10.060Z,5.92
2017-12-05T00:19:09.955Z,5.88
2017-12-05T00:20:09.873Z,5.96
2017-12-05T00:21:09.793Z,6.03
2017-12-05T00:22:09.702Z,5.91
2017-12-05T00:23:09.605Z,5.85
2017-12-05T00:24:09.529Z,5.82
2017-12-05T00:25:09.422Z,5.93
2017-12-05T00:26:09.331Z,6.00
2017-12-05T00:27:09.246Z,5.93
2017-12-05T00:28:09.154Z,5.98
2017-12-05T00:29:09.068Z,5.96
2017-12-05T00:30:08.978Z,6.13
2017-12-05T00:31:09.846Z,5.96
2017-12-05T00:32:08.799Z,6.00
2017-12-05T00:33:08.711Z,5.93
2017-12-05T00:34:08.625Z,6.06
2017-12-05T00:35:08.540Z,5.93
2017-12-05T00:36:08.441Z,5.93
2017-12-05T00:37:08.353Z,6.00
2017-12-05T00:38:08.262Z,6.00
2017-12-05T00:39:08.176Z,5.91
2017-12-05T00:40:08.090Z,5.88
2017-12-05T00:41:07.998Z,5.93
2017-12-05T00:42:07.911Z,5.93
2017-12-05T00:43:07.822Z,6.00
2017-12-05T00:44:07.729Z,6.01
2017-12-05T00:45:07.639Z,5.91
2017-12-05T00:46:07.550Z,6.03
2017-12-05T00:47:07.467Z,5.98
2017-12-05T00:48:07.374Z,6.04
2017-12-05T00:49:07.282Z,5.93
2017-12-05T00:50:07.193Z,5.96
2017-12-05T00:51:07.105Z,6.01
2017-12-05T00:52:07.014Z,6.03
2017-12-05T00:53:06.935Z,6.04
2017-12-05T00:54:06.843Z,5.89
2017-12-05T00:55:06.747Z,5.88
2017-12-05T00:56:06.666Z,5.92
2017-12-05T00:57:06.569Z,5.93
2017-12-05T00:58:06.477Z,5.92
2017-12-05T00:59:06.398Z,6.04
2017-12-05T01:00:06.302Z,6.03
2017-12-05T01:01:06.208Z,5.98
2017-12-05T01:02:06.136Z,6.11
2017-12-05T01:03:06.051Z,6.04
2017-12-05T01:04:05.964Z,6.09
2017-12-05T01:05:05.864Z,6.11
2017-12-05T01:06:05.773Z,5.92
2017-12-05T01:07:05.671Z,5.93
2017-12-05T01:08:05.586Z,6.00
2017-12-05T01:09:05.495Z,5.96
2017-12-05T01:10:05.406Z,5.96
2017-12-05T01:11:05.312Z,5.91
2017-12-05T01:12:05.229Z,5.95
2017-12-05T01:13:05.144Z,5.89
2017-12-05T01:14:05.055Z,5.88
2017-12-05T01:15:04.963Z,6.07
2017-12-05T01:16:04.878Z,6.04
2017-12-05T01:17:04.789Z,6.00
2017-12-05T01:18:04.694Z,6.03
2017-12-05T01:19:04.603Z,6.00
2017-12-05T01:20:04.522Z,5.92
2017-12-05T01:21:04.424Z,5.89
2017-12-05T01:22:04.332Z,5.85
2017-12-05T01:23:04.249Z,5.93
2017-12-05T01:24:04.150Z,5.93
2017-12-05T01:25:04.067Z,6.00
2017-12-05T01:26:03.975Z,6.00
2017-12-05T01:27:03.888Z,6.09
2017-12-05T01:28:03.811Z,6.03
2017-12-05T01:29:03.725Z,6.01
2017-12-05T01:30:04.420Z,6.00
2017-12-05T01:31:03.545Z,6.01
2017-12-05T01:32:03.439Z,6.03
2017-12-05T01:33:03.348Z,5.92
2017-12-05T01:34:03.277Z,5.93
2017-12-05T01:35:03.167Z,5.95
2017-12-05T01:36:03.082Z,5.91
2017-12-05T01:37:02.993Z,5.85
2017-12-05T01:38:02.903Z,5.92
2017-12-05T01:39:02.812Z,5.86
2017-12-05T01:40:02.723Z,5.86
2017-12-05T01:41:02.636Z,5.86
2017-12-05T01:42:02.541Z,5.89
2017-12-05T01:43:02.448Z,5.77
2017-12-05T01:44:02.362Z,5.85
2017-12-05T01:45:02.271Z,5.82
2017-12-05T01:46:02.187Z,5.91
2017-12-05T01:47:02.091Z,6.01
2017-12-05T01:48:01.999Z,5.91
2017-12-05T01:49:01.913Z,5.91
2017-12-05T01:50:01.826Z,5.92
2017-12-05T01:51:01.730Z,5.92
2017-12-05T01:52:01.638Z,5.95
2017-12-05T01:53:01.563Z,6.00
2017-12-05T01:54:01.461Z,6.07
2017-12-05T01:55:01.373Z,5.93
2017-12-05T01:56:01.279Z,5.89
2017-12-05T01:57:01.192Z,5.95
2017-12-05T01:58:01.113Z,5.93
2017-12-05T01:59:01.014Z,5.93
2017-12-05T02:00:00.921Z,5.95
2017-12-05T02:01:00.833Z,5.96
2017-12-05T02:02:00.738Z,5.92
2017-12-05T02:03:00.654Z,6.03
2017-12-05T02:04:00.559Z,6.06
2017-12-05T02:05:00.486Z,6.04
2017-12-05T02:06:00.382Z,6.01
2017-12-05T02:07:00.306Z,6.04
2017-12-05T02:08:00.215Z,5.96
2017-12-05T02:09:00.117Z,5.92
2017-12-05T02:10:00.034Z,6.00
2017-12-05T02:10:59.937Z,6.09
2017-12-05T02:11:59.847Z,6.01
2017-12-05T02:12:59.760Z,6.03
2017-12-05T02:13:59.671Z,5.96
2017-12-05T02:14:59.582Z,5.98
2017-12-05T02:15:59.491Z,6.04
2017-12-05T02:16:59.402Z,5.98
2017-12-05T02:17:59.308Z,5.89
2017-12-05T02:18:59.224Z,6.00
2017-12-05T02:19:59.136Z,5.93
2017-12-05T02:20:59.042Z,5.95
2017-12-05T02:21:58.955Z,5.85
2017-12-05T02:22:58.883Z,5.92
2017-12-05T02:23:58.784Z,5.95
2017-12-05T02:24:58.688Z,5.93
2017-12-05T02:25:58.601Z,5.93
2017-12-05T02:26:58.512Z,5.98
2017-12-05T02:27:58.414Z,5.93
2017-12-05T02:28:59.017Z,6.01
2017-12-05T02:29:58.237Z,5.93
2017-12-05T02:30:58.149Z,6.04
2017-12-05T02:31:58.060Z,6.10
2017-12-05T02:32:57.971Z,6.07
2017-12-05T02:33:57.881Z,6.01
2017-12-05T02:34:57.789Z,5.91
2017-12-05T02:35:57.697Z,6.00
2017-12-05T02:36:57.609Z,6.03
2017-12-05T02:37:57.541Z,6.11
2017-12-05T02:38:57.427Z,6.09
2017-12-05T02:39:57.342Z,6.03
2017-12-05T02:40:57.257Z,6.14
2017-12-05T02:41:57.179Z,6.11
2017-12-05T02:42:57.076Z,6.11
2017-12-05T02:43:56.981Z,6.10
2017-12-05T02:44:56.910Z,6.04
2017-12-05T02:45:56.814Z,5.96
2017-12-05T02:46:56.716Z,6.07
2017-12-05T02:47:56.624Z,5.92
2017-12-05T02:48:56.531Z,6.13
2017-12-05T02:49:56.451Z,6.10
2017-12-05T02:50:56.359Z,6.14
2017-12-05T02:51:56.264Z,6.13
2017-12-05T02:52:56.175Z,6.14
2017-12-05T02:53:56.088Z,6.13
2017-12-05T02:54:55.996Z,6.11
2017-12-05T02:55:55.912Z,6.13
2017-12-05T02:56:55.821Z,6.14
2017-12-05T02:57:55.741Z,6.07
2017-12-05T02:58:55.641Z,6.09
2017-12-05T02:59:55.728Z,6.07
2017-12-05T03:00:55.462Z,6.14
2017-12-05T03:01:55.373Z,6.13
2017-12-05T03:02:55.281Z,6.07
2017-12-05T03:03:55.195Z,6.18
2017-12-05T03:04:55.103Z,6.16
2017-12-05T03:05:55.021Z,6.14
2017-12-05T03:06:54.939Z,6.19
2017-12-05T03:07:54.837Z,6.16
2017-12-05T03:08:54.753Z,6.26
2017-12-05T03:09:54.656Z,6.26
2017-12-05T03:10:54.580Z,6.22
2017-12-05T03:11:54.479Z,6.25
2017-12-05T03:12:54.391Z,6.14
2017-12-05T03:13:54.314Z,6.18
2017-12-05T03:14:54.212Z,6.28
2017-12-05T03:15:54.128Z,6.16
2017-12-05T03:16:54.036Z,6.21
2017-12-05T03:17:53.943Z,6.29
2017-12-05T03:18:53.859Z,6.19
2017-12-05T03:19:53.776Z,6.25
2017-12-05T03:20:53.677Z,6.32
2017-12-05T03:21:53.591Z,6.22
2017-12-05T03:22:53.501Z,6.09
2017-12-05T03:23:53.416Z,6.18
2017-12-05T03:24:53.321Z,6.13
2017-12-05T03:25:53.236Z,6.19
2017-12-05T03:26:53.143Z,6.19
2017-12-05T03:27:53.612Z,6.19
2017-12-05T03:28:52.965Z,6.21
2017-12-05T03:29:52.886Z,6.29
2017-12-05T03:30:52.793Z,6.16
2017-12-05T03:31:52.709Z,6.35
2017-12-05T03:32:52.603Z,6.18
2017-12-05T03:33:52.521Z,6.09
2017-12-05T03:34:52.460Z,6.21
2017-12-05T03:35:52.344Z,6.16
2017-12-05T03:36:52.252Z,6.28
2017-12-05T03:37:52.162Z,6.06
2017-12-05T03:38:52.072Z,6.09
2017-12-05T03:39:51.982Z,6.21
2017-12-05T03:40:51.895Z,6.29
2017-12-05T03:41:51.819Z,6.16
2017-12-05T03:42:51.755Z,6.25
2017-12-05T03:43:51.626Z,6.18
2017-12-05T03:44:51.536Z,6.21
2017-12-05T03:45:51.449Z,6.09
2017-12-05T03:46:51.363Z,6.11
2017-12-05T03:47:51.271Z,6.21
2017-12-05T03:48:51.187Z,6.21
2017-12-05T03:49:51.098Z,6.28
2017-12-05T03:50:51.020Z,6.40
2017-12-05T03:51:50.911Z,6.30
2017-12-05T03:52:50.828Z,6.35
2017-12-05T03:53:50.736Z,6.32
2017-12-05T03:54:50.653Z,6.19
2017-12-05T03:55:50.556Z,6.11
2017-12-05T03:56:50.468Z,6.28
2017-12-05T03:57:50.376Z,6.30
2017-12-05T03:58:50.296Z,6.32
2017-12-05T03:59:50.200Z,6.41
2017-12-05T04:00:50.107Z,6.38
2017-12-05T04:01:50.021Z,6.41
2017-12-05T04:02:49.933Z,6.10
2017-12-05T04:03:49.844Z,6.10
2017-12-05T04:04:49.759Z,6.38
2017-12-05T04:05:49.664Z,6.40
2017-12-05T04:06:49.570Z,6.19
2017-12-05T04:07:49.492Z,6.19
2017-12-05T04:08:49.402Z,6.35
2017-12-05T04:09:49.311Z,6.33
2017-12-05T04:10:49.228Z,6.32
2017-12-05T04:11:49.143Z,6.43
2017-12-05T04:12:49.054Z,6.41
2017-12-05T04:13:48.965Z,6.40
2017-12-05T04:14:48.860Z,6.47
2017-12-05T04:15:48.771Z,6.40
2017-12-05T04:16:48.685Z,6.41
2017-12-05T04:17:48.602Z,6.38
2017-12-05T04:18:48.509Z,6.40
2017-12-05T04:19:48.420Z,6.38
2017-12-05T04:20:48.344Z,6.38
2017-12-05T04:21:48.250Z,6.38
2017-12-05T04:22:48.155Z,6.41
2017-12-05T04:23:48.060Z,6.26
2017-12-05T04:24:47.973Z,6.43
2017-12-05T04:25:47.884Z,6.41
2017-12-05T04:26:48.185Z,6.40
2017-12-05T04:27:47.714Z,6.28
2017-12-05T04:28:47.622Z,6.22
2017-12-05T04:29:47.526Z,6.35
2017-12-05T04:30:47.439Z,6.44
2017-12-05T04:31:47.360Z,6.29
2017-12-05T04:32:47.262Z,6.35
2017-12-05T04:33:47.176Z,6.44
2017-12-05T04:34:47.101Z,6.30
2017-12-05T04:35:46.995Z,6.43
2017-12-05T04:36:46.905Z,6.41
2017-12-05T04:37:46.828Z,6.44
2017-12-05T04:38:46.956Z,6.43
2017-12-05T04:39:46.641Z,6.46
2017-12-05T04:40:46.546Z,6.53
2017-12-05T04:41:46.469Z,6.51
2017-12-05T04:42:46.377Z,6.50
2017-12-05T04:43:46.286Z,6.43
2017-12-05T04:44:46.204Z,6.33
2017-12-05T04:45:46.108Z,6.22
2017-12-05T04:46:46.017Z,6.43
2017-12-05T04:47:45.929Z,6.30
2017-12-05T04:48:45.839Z,6.43
2017-12-05T04:49:45.755Z,6.40
2017-12-05T04:50:45.661Z,6.44
2017-12-05T04:51:45.573Z,6.41
2017-12-05T04:52:45.490Z,6.44
2017-12-05T04:53:45.398Z,6.43
2017-12-05T04:54:45.311Z,6.40
2017-12-05T04:55:45.227Z,6.44
2017-12-05T04:56:45.134Z,6.44
2017-12-05T04:57:45.052Z,6.44
2017-12-05T04:58:44.955Z,6.44
2017-12-05T04:59:44.865Z,6.35
2017-12-05T05:00:44.778Z,6.40
2017-12-05T05:01:44.690Z,6.41
2017-12-05T05:02:44.597Z,6.44
2017-12-05T05:03:44.512Z,6.40
2017-12-05T05:04:44.421Z,6.30
2017-12-05T05:05:44.349Z,6.18
2017-12-05T05:06:44.237Z,6.14
2017-12-05T05:07:44.153Z,6.29
2017-12-05T05:08:44.069Z,6.29
2017-12-05T05:09:43.984Z,6.14
2017-12-05T05:10:43.879Z,6.21
2017-12-05T05:11:43.803Z,6.18
2017-12-05T05:12:43.712Z,6.33
2017-12-05T05:13:43.618Z,6.28
2017-12-05T05:14:43.521Z,6.32
2017-12-05T05:15:43.436Z,6.16
2017-12-05T05:16:43.346Z,6.35
2017-12-05T05:17:43.257Z,6.44
2017-12-05T05:18:43.171Z,6.41
2017-12-05T05:19:43.087Z,6.35
2017-12-05T05:20:42.997Z,6.40
2017-12-05T05:21:42.908Z,6.41
2017-12-05T05:22:42.812Z,6.38
2017-12-05T05:23:42.734Z,6.41
2017-12-05T05:24:42.635Z,6.43
2017-12-05T05:25:42.770Z,6.29
2017-12-05T05:26:42.461Z,6.35
2017-12-05T05:27:42.379Z,6.43
2017-12-05T05:28:42.284Z,6.40
2017-12-05T05:29:42.185Z,6.53
2017-12-05T05:30:42.104Z,6.50
2017-12-05T05:31:42.019Z,6.41
2017-12-05T05:32:41.926Z,6.43
2017-12-05T05:33:41.837Z,6.43
2017-12-05T05:34:41.747Z,6.40
2017-12-05T05:35:41.659Z,6.41
2017-12-05T05:36:41.569Z,6.41
2017-12-05T05:37:41.485Z,6.46
2017-12-05T05:38:41.389Z,6.35
2017-12-05T05:39:41.314Z,6.25
2017-12-05T05:40:41.213Z,6.21
2017-12-05T05:41:41.125Z,6.41
2017-12-05T05:42:41.047Z,6.38
2017-12-05T05:43:40.960Z,6.18
2017-12-05T05:44:40.857Z,6.22
2017-12-05T05:45:40.802Z,6.38
2017-12-05T05:46:40.675Z,6.36
2017-12-05T05:47:40.586Z,6.41
2017-12-05T05:48:40.507Z,6.32
2017-12-05T05:49:40.412Z,6.19
2017-12-05T05:50:40.320Z,6.18
2017-12-05T05:51:40.229Z,6.13
2017-12-05T05:52:40.149Z,6.22
2017-12-05T05:53:40.056Z,6.16
2017-12-05T05:54:39.968Z,6.22
2017-12-05T05:55:39.873Z,6.21
2017-12-05T05:56:39.796Z,6.35
2017-12-05T05:57:39.706Z,6.41
2017-12-05T05:58:39.602Z,6.40
2017-12-05T05:59:39.517Z,6.46
2017-12-05T06:00:39.424Z,6.43
2017-12-05T06:01:39.345Z,6.40
2017-12-05T06:02:39.246Z,6.43
2017-12-05T06:03:39.171Z,6.51
2017-12-05T06:04:39.067Z,6.51
2017-12-05T06:05:38.981Z,6.50
2017-12-05T06:06:38.912Z,6.44
2017-12-05T06:07:38.815Z,6.51
2017-12-05T06:08:38.718Z,6.46
2017-12-05T06:09:38.626Z,6.46
2017-12-05T06:10:38.554Z,6.50
2017-12-05T06:11:38.453Z,6.48
2017-12-05T06:12:38.362Z,6.53
2017-12-05T06:13:38.277Z,6.41
2017-12-05T06:14:38.190Z,6.14
2017-12-05T06:15:38.100Z,6.40
2017-12-05T06:16:38.013Z,6.22
2017-12-05T06:17:37.932Z,6.46
2017-12-05T06:18:37.837Z,6.41
2017-12-05T06:19:37.741Z,6.54
2017-12-05T06:20:37.647Z,6.56
2017-12-05T06:21:37.561Z,6.61
2017-12-05T06:22:37.514Z,6.62
2017-12-05T06:23:37.386Z,6.50
2017-12-05T06:24:37.377Z,6.51
2017-12-05T06:25:37.213Z,6.53
2017-12-05T06:26:37.120Z,6.48
2017-12-05T06:27:37.037Z,6.54
2017-12-05T06:28:36.956Z,6.51
2017-12-05T06:29:36.862Z,6.44
2017-12-05T06:30:36.770Z,6.47
2017-12-05T06:31:36.687Z,6.58
2017-12-05T06:32:36.592Z,6.53
2017-12-05T06:33:36.500Z,6.14
2017-12-05T06:34:36.427Z,6.18
2017-12-05T06:35:36.337Z,6.32
2017-12-05T06:36:36.238Z,6.43
2017-12-05T06:37:36.166Z,6.38
2017-12-05T06:38:36.072Z,6.40
2017-12-05T06:39:35.977Z,6.43
2017-12-05T06:40:35.878Z,6.28
2017-12-05T06:41:35.803Z,6.36
2017-12-05T06:42:35.711Z,6.33
2017-12-05T06:43:35.621Z,6.32
2017-12-05T06:44:35.527Z,6.40
2017-12-05T06:45:35.441Z,6.22
2017-12-05T06:46:35.346Z,6.22
2017-12-05T06:47:35.258Z,6.18
2017-12-05T06:48:35.165Z,6.35
2017-12-05T06:49:35.083Z,6.41
2017-12-05T06:50:35.003Z,6.35
2017-12-05T06:51:34.905Z,6.21
2017-12-05T06:52:34.824Z,6.26
2017-12-05T06:53:34.727Z,6.25
2017-12-05T06:54:34.645Z,6.22
2017-12-05T06:55:34.551Z,6.19
2017-12-05T06:56:34.455Z,6.25
2017-12-05T06:57:34.372Z,6.22
2017-12-05T06:58:34.280Z,6.35
2017-12-05T06:59:34.191Z,6.41
2017-12-05T07:00:34.143Z,6.38
2017-12-05T07:01:34.009Z,6.43
2017-12-05T07:02:33.920Z,6.41
2017-12-05T07:03:33.829Z,6.38
2017-12-05T07:04:33.747Z,6.41
2017-12-05T07:05:33.657Z,6.16
2017-12-05T07:06:33.567Z,6.32
2017-12-05T07:07:33.485Z,6.47
2017-12-05T07:08:33.391Z,6.43
2017-12-05T07:09:33.309Z,6.46
2017-12-05T07:10:33.212Z,6.40
2017-12-05T07:11:33.123Z,6.35
2017-12-05T07:12:33.037Z,6.41
2017-12-05T07:13:32.949Z,6.43
2017-12-05T07:14:32.862Z,6.14
2017-12-05T07:15:32.770Z,6.35
2017-12-05T07:16:32.683Z,6.40
2017-12-05T07:17:32.589Z,6.46
2017-12-05T07:18:32.500Z,6.35
2017-12-05T07:19:32.407Z,6.26
2017-12-05T07:20:32.318Z,6.40
2017-12-05T07:21:32.233Z,6.41
2017-12-05T07:22:32.156Z,6.26
2017-12-05T07:23:32.062Z,6.43
2017-12-05T07:24:31.975Z,6.33
2017-12-05T07:25:31.883Z,6.32
2017-12-05T07:26:31.786Z,6.41
2017-12-05T07:27:31.703Z,6.43
2017-12-05T07:28:31.614Z,6.51
2017-12-05T07:29:31.522Z,6.41
2017-12-05T07:30:31.432Z,6.53
2017-12-05T07:31:31.353Z,6.58
2017-12-05T07:32:31.257Z,6.47
2017-12-05T07:33:31.167Z,6.47
2017-12-05T07:34:31.075Z,6.50
2017-12-05T07:35:30.984Z,6.54
2017-12-05T07:36:30.922Z,6.50
2017-12-05T07:37:30.810Z,6.53
2017-12-05T07:38:30.719Z,6.66
2017-12-05T07:39:30.647Z,6.54
2017-12-05T07:40:30.545Z,6.46
2017-12-05T07:41:30.461Z,6.41
2017-12-05T07:42:30.366Z,6.48
2017-12-05T07:43:30.283Z,6.58
2017-12-05T07:44:30.191Z,6.50
2017-12-05T07:45:30.096Z,6.56
2017-12-05T07:46:30.020Z,6.53
2017-12-05T07:47:29.920Z,6.53
2017-12-05T07:48:29.861Z,6.54
2017-12-05T07:49:29.751Z,6.56
2017-12-05T07:50:29.664Z,6.47
2017-12-05T07:51:29.566Z,6.59
2017-12-05T07:52:29.483Z,6.41
2017-12-05T07:53:30.261Z,6.38
2017-12-05T07:54:29.305Z,6.46
2017-12-05T07:55:29.215Z,6.41
2017-12-05T07:56:29.126Z,6.41
2017-12-05T07:57:29.044Z,6.43
2017-12-05T07:58:28.942Z,6.53
2017-12-05T07:59:28.861Z,6.61
2017-12-05T08:00:28.765Z,6.59
2017-12-05T08:01:28.681Z,6.40
2017-12-05T08:02:28.594Z,6.50
2017-12-05T08:03:28.508Z,6.50
2017-12-05T08:04:28.409Z,6.43
2017-12-05T08:05:28.340Z,6.43
2017-12-05T08:06:28.234Z,6.47
2017-12-05T08:07:28.171Z,6.47
2017-12-05T08:08:28.059Z,6.48
2017-12-05T08:09:27.973Z,6.50
2017-12-05T08:10:27.877Z,6.41
2017-12-05T08:11:27.790Z,6.36
2017-12-05T08:12:27.698Z,6.43
2017-12-05T08:13:27.609Z,6.50
2017-12-05T08:14:27.518Z,6.43
2017-12-05T08:15:27.424Z,6.50
2017-12-05T08:16:27.342Z,6.65
2017-12-05T08:17:27.250Z,6.63
2017-12-05T08:18:27.158Z,6.44
2017-12-05T08:19:27.072Z,6.46
2017-12-05T08:20:26.991Z,6.51
2017-12-05T08:21:26.892Z,6.48
2017-12-05T08:22:26.807Z,6.43
2017-12-05T08:23:26.719Z,6.26
2017-12-05T08:24:26.643Z,6.14
2017-12-05T08:25:26.552Z,6.28
2017-12-05T08:26:26.449Z,6.35
2017-12-05T08:27:26.374Z,6.44
2017-12-05T08:28:26.275Z,6.56
2017-12-05T08:29:26.184Z,6.41
2017-12-05T08:30:26.087Z,6.35
2017-12-05T08:31:26.001Z,6.32
2017-12-05T08:32:25.910Z,6.40
2017-12-05T08:33:25.839Z,6.32
2017-12-05T08:34:25.735Z,6.21
2017-12-05T08:35:25.649Z,6.16
2017-12-05T08:36:25.568Z,6.33
2017-12-05T08:37:25.474Z,6.50
2017-12-05T08:38:25.389Z,6.32
2017-12-05T08:39:25.282Z,6.32
2017-12-05T08:40:25.236Z,6.16
2017-12-05T08:41:25.115Z,6.19
2017-12-05T08:42:25.018Z,6.32
2017-12-05T08:43:24.929Z,6.36
2017-12-05T08:44:24.846Z,6.32
2017-12-05T08:45:24.748Z,6.22
2017-12-05T08:46:24.681Z,6.32
2017-12-05T08:47:24.571Z,6.41
2017-12-05T08:48:24.478Z,6.35
2017-12-05T08:49:24.391Z,6.35
2017-12-05T08:50:24.311Z,6.21
2017-12-05T08:51:24.209Z,6.21
2017-12-05T08:52:25.048Z,6.35
2017-12-05T08:53:24.033Z,6.41
2017-12-05T08:54:23.955Z,6.43
2017-12-05T08:55:23.856Z,6.19
2017-12-05T08:56:23.763Z,6.38
2017-12-05T08:57:23.709Z,6.33
2017-12-05T08:58:23.589Z,6.25
2017-12-05T08:59:23.512Z,6.41
2017-12-05T09:00:23.405Z,6.43
2017-12-05T09:01:23.311Z,6.58
2017-12-05T09:02:23.237Z,6.66
2017-12-05T09:03:23.139Z,6.50
2017-12-05T09:04:23.057Z,6.58
2017-12-05T09:05:22.986Z,6.50
2017-12-05T09:06:22.878Z,6.40
2017-12-05T09:07:22.780Z,6.43
2017-12-05T09:08:22.691Z,6.41
2017-12-05T09:09:22.634Z,6.38
2017-12-05T09:10:22.532Z,6.46
2017-12-05T09:11:22.418Z,6.59
2017-12-05T09:12:22.334Z,6.59
2017-12-05T09:13:22.241Z,6.71
2017-12-05T09:14:22.152Z,6.54
2017-12-05T09:15:22.066Z,6.65
2017-12-05T09:16:21.976Z,6.59
2017-12-05T09:17:21.885Z,6.62
2017-12-05T09:18:21.796Z,6.59
2017-12-05T09:19:21.716Z,6.58
2017-12-05T09:20:21.629Z,6.51
2017-12-05T09:21:21.533Z,6.61
2017-12-05T09:22:21.442Z,6.68
2017-12-05T09:23:21.363Z,6.65
2017-12-05T09:24:21.268Z,6.76
2017-12-05T09:25:21.180Z,6.81
2017-12-05T09:26:21.091Z,6.68
2017-12-05T09:27:21.015Z,6.65
2017-12-05T09:28:20.917Z,6.68
2017-12-05T09:29:20.847Z,6.83
2017-12-05T09:30:20.738Z,6.73
2017-12-05T09:31:20.694Z,6.77
2017-12-05T09:32:20.558Z,6.69
2017-12-05T09:33:20.471Z,6.68
2017-12-05T09:34:20.390Z,6.83
2017-12-05T09:35:20.288Z,6.69
2017-12-05T09:36:20.198Z,6.71
2017-12-05T09:37:20.113Z,6.68
2017-12-05T09:38:20.036Z,6.84
2017-12-05T09:39:19.938Z,6.79
2017-12-05T09:40:19.845Z,6.63
2017-12-05T09:41:19.771Z,6.68
2017-12-05T09:42:19.678Z,6.84
2017-12-05T09:43:19.599Z,6.72
2017-12-05T09:44:19.502Z,6.68
2017-12-05T09:45:19.408Z,6.56
2017-12-05T09:46:19.318Z,6.56
2017-12-05T09:47:19.239Z,6.63
2017-12-05T09:48:19.139Z,6.73
2017-12-05T09:49:19.058Z,6.69
2017-12-05T09:50:18.993Z,6.66
2017-12-05T09:51:19.655Z,6.59
2017-12-05T09:52:18.789Z,6.56
2017-12-05T09:53:18.703Z,6.69
2017-12-05T09:54:18.611Z,6.77
2017-12-05T09:55:18.523Z,6.41
2017-12-05T09:56:18.428Z,6.48
2017-12-05T09:57:18.337Z,6.72
2017-12-05T09:58:18.251Z,6.68
2017-12-05T09:59:18.172Z,6.81
2017-12-05T10:00:18.067Z,6.87
2017-12-05T10:01:17.984Z,6.84
2017-12-05T10:02:17.900Z,6.66
2017-12-05T10:03:17.816Z,6.71
2017-12-05T10:04:17.720Z,6.71
2017-12-05T10:05:17.631Z,6.79
2017-12-05T10:06:17.565Z,6.87
2017-12-05T10:07:17.457Z,6.69
2017-12-05T10:08:17.364Z,6.58
2017-12-05T10:09:17.271Z,6.62
2017-12-05T10:10:17.180Z,6.65
2017-12-05T10:11:17.105Z,6.65
2017-12-05T10:12:17.005Z,6.76
2017-12-05T10:13:16.915Z,6.77
2017-12-05T10:14:16.826Z,6.81
2017-12-05T10:15:16.772Z,6.68
2017-12-05T10:16:16.649Z,6.62
2017-12-05T10:17:16.560Z,6.68
2017-12-05T10:18:16.477Z,6.86
2017-12-05T10:19:16.376Z,6.77
2017-12-05T10:20:16.293Z,6.81
2017-12-05T10:21:16.211Z,6.69
2017-12-05T10:22:16.105Z,6.66
2017-12-05T10:23:16.046Z,6.46
2017-12-05T10:24:15.942Z,6.66
2017-12-05T10:25:15.840Z,6.71
2017-12-05T10:26:15.788Z,6.77
2017-12-05T10:27:15.672Z,6.69
2017-12-05T10:28:15.582Z,6.68
2017-12-05T10:29:15.482Z,6.83
2017-12-05T10:30:15.414Z,6.79
2017-12-05T10:31:15.337Z,6.71
2017-12-05T10:32:15.213Z,6.80
2017-12-05T10:33:15.155Z,6.84
2017-12-05T10:34:15.046Z,6.89
2017-12-05T10:35:14.963Z,6.81
2017-12-05T10:36:14.875Z,6.94
2017-12-05T10:37:14.774Z,6.98
2017-12-05T10:38:14.689Z,7.05
2017-12-05T10:39:14.604Z,7.08
2017-12-05T10:40:14.509Z,7.29
2017-12-05T10:41:14.410Z,7.35
2017-12-05T10:42:14.330Z,7.52
2017-12-05T10:43:14.238Z,7.42
2017-12-05T10:44:14.192Z,7.35
2017-12-05T10:45:14.064Z,7.69
2017-12-05T10:46:13.981Z,7.53
2017-12-05T10:47:13.890Z,7.56
2017-12-05T10:48:13.805Z,7.47
2017-12-05T10:49:13.731Z,7.55
2017-12-05T10:50:14.233Z,7.50
2017-12-05T10:51:13.533Z,7.35
2017-12-05T10:52:13.441Z,7.08
2017-12-05T10:53:13.356Z,7.17
2017-12-05T10:54:13.270Z,7.22
2017-12-05T10:55:13.180Z,7.17
2017-12-05T10:56:13.083Z,7.12
2017-12-05T10:57:13.006Z,7.09
2017-12-05T10:58:12.910Z,6.95
2017-12-05T10:59:12.821Z,7.07
2017-12-05T11:00:12.801Z,7.07
2017-12-05T11:01:12.645Z,7.07
2017-12-05T11:02:12.556Z,7.16
2017-12-05T11:03:12.467Z,7.07
2017-12-05T11:04:12.376Z,7.20
2017-12-05T11:05:12.317Z,7.07
2017-12-05T11:06:12.206Z,7.04
2017-12-05T11:07:12.130Z,7.07
2017-12-05T11:08:12.036Z,7.09
2017-12-05T11:09:11.936Z,7.12
2017-12-05T11:10:11.841Z,7.05
2017-12-05T11:11:11.751Z,7.09
2017-12-05T11:12:11.668Z,7.13
2017-12-05T11:13:11.575Z,7.04
2017-12-05T11:14:11.501Z,7.01
2017-12-05T11:15:11.409Z,7.07
2017-12-05T11:16:11.363Z,7.07
2017-12-05T11:17:11.222Z,7.04
2017-12-05T11:18:11.132Z,7.09
2017-12-05T11:19:11.061Z,7.17
2017-12-05T11:20:10.959Z,7.13
2017-12-05T11:21:10.872Z,7.17
2017-12-05T11:22:10.798Z,7.32
2017-12-05T11:23:10.691Z,7.56
2017-12-05T11:24:10.605Z,7.55
2017-12-05T11:25:10.569Z,7.67
2017-12-05T11:26:10.473Z,7.92
2017-12-05T11:27:10.380Z,8.14
2017-12-05T11:28:10.322Z,7.93
2017-12-05T11:29:10.181Z,7.85
2017-12-05T11:30:10.079Z,8.42
2017-12-05T11:31:09.987Z,8.91
2017-12-05T11:32:09.898Z,9.20
2017-12-05T11:33:09.821Z,9.45
2017-12-05T11:34:09.788Z,9.52
2017-12-05T11:35:09.783Z,9.45
2017-12-05T11:36:09.561Z,8.96
2017-12-05T11:37:09.484Z,8.96
2017-12-05T11:38:09.388Z,8.69
2017-12-05T11:39:09.327Z,8.83
2017-12-05T11:40:09.213Z,8.96
2017-12-05T11:41:09.130Z,8.99
2017-12-05T11:42:09.058Z,8.88
2017-12-05T11:43:08.968Z,9.04
2017-12-05T11:44:08.872Z,8.99
2017-12-05T11:45:08.791Z,9.10
2017-12-05T11:46:08.703Z,8.94
2017-12-05T11:47:08.608Z,8.81
2017-12-05T11:48:08.535Z,8.73
2017-12-05T11:49:08.794Z,8.60
2017-12-05T11:50:08.358Z,8.57
2017-12-05T11:51:08.266Z,8.55
2017-12-05T11:52:08.173Z,8.83
2017-12-05T11:53:08.109Z,8.83
2017-12-05T11:54:08.003Z,8.60
2017-12-05T11:55:07.915Z,8.32
2017-12-05T11:56:07.835Z,8.28
2017-12-05T11:57:07.745Z,8.32
2017-12-05T11:58:07.655Z,8.55
2017-12-05T11:59:07.562Z,8.76
2017-12-05T12:00:07.483Z,8.55
2017-12-05T12:01:07.391Z,8.35
2017-12-05T12:02:07.304Z,8.58
2017-12-05T12:03:07.227Z,8.57
2017-12-05T12:04:07.131Z,8.62
2017-12-05T12:05:07.044Z,8.69
2017-12-05T12:06:06.953Z,8.60
2017-12-05T12:07:06.869Z,8.51
2017-12-05T12:08:06.778Z,8.39
2017-12-05T12:09:06.693Z,8.25
2017-12-05T12:10:06.646Z,8.25
2017-12-05T12:11:06.531Z,8.32
2017-12-05T12:12:06.433Z,8.39
2017-12-05T12:13:06.347Z,8.14
2017-12-05T12:14:06.261Z,8.21
2017-12-05T12:15:06.170Z,8.26
2017-12-05T12:16:06.083Z,8.21
2017-12-05T12:17:05.993Z,8.33
2017-12-05T12:18:05.906Z,8.33
2017-12-05T12:19:05.841Z,8.32
2017-12-05T12:20:05.728Z,8.48
2017-12-05T12:21:05.635Z,8.48
2017-12-05T12:22:05.563Z,8.57
2017-12-05T12:23:05.465Z,8.42
2017-12-05T12:24:05.378Z,8.28
2017-12-05T12:25:05.292Z,8.25
2017-12-05T12:26:05.208Z,8.44
2017-12-05T12:27:05.118Z,8.22
2017-12-05T12:28:05.033Z,8.39
2017-12-05T12:29:04.932Z,8.20
2017-12-05T12:30:04.863Z,8.26
2017-12-05T12:31:04.785Z,8.21
2017-12-05T12:32:04.677Z,8.42
2017-12-05T12:33:04.582Z,8.17
2017-12-05T12:34:04.498Z,8.11
2017-12-05T12:35:04.411Z,8.04
2017-12-05T12:36:04.325Z,7.99
2017-12-05T12:37:04.250Z,8.08
2017-12-05T12:38:04.147Z,8.15
2017-12-05T12:39:04.067Z,8.18
2017-12-05T12:40:03.976Z,8.18
2017-12-05T12:41:03.881Z,8.02
2017-12-05T12:42:03.791Z,7.78
2017-12-05T12:43:03.711Z,7.89
2017-12-05T12:44:03.665Z,7.81
2017-12-05T12:45:03.533Z,7.94
2017-12-05T12:46:03.442Z,8.02
2017-12-05T12:47:03.358Z,8.11
2017-12-05T12:48:03.407Z,7.94
2017-12-05T12:49:03.174Z,8.03
2017-12-05T12:50:03.082Z,8.00
2017-12-05T12:51:03.003Z,7.85
2017-12-05T12:52:02.910Z,7.99
2017-12-05T12:53:02.818Z,7.89
2017-12-05T12:54:02.743Z,7.72
2017-12-05T12:55:02.660Z,7.66
2017-12-05T12:56:02.553Z,7.67
2017-12-05T12:57:02.467Z,7.58
2017-12-05T12:58:02.377Z,7.66
2017-12-05T12:59:02.284Z,7.55
2017-12-05T13:00:02.196Z,7.58
2017-12-05T13:01:02.123Z,7.58
2017-12-05T13:02:02.023Z,7.66
2017-12-05T13:03:01.931Z,7.72
2017-12-05T13:04:01.846Z,7.62
2017-12-05T13:05:01.753Z,7.66
2017-12-05T13:06:01.663Z,7.67
2017-12-05T13:07:01.580Z,7.81
2017-12-05T13:08:01.492Z,7.60
2017-12-05T13:09:01.395Z,7.74
2017-12-05T13:10:01.312Z,7.67
2017-12-05T13:11:01.217Z,7.67
2017-12-05T13:12:01.137Z,7.79
2017-12-05T13:13:01.040Z,7.72
2017-12-05T13:14:00.955Z,7.58
2017-12-05T13:15:00.864Z,7.71
2017-12-05T13:16:00.799Z,7.77
2017-12-05T13:17:00.691Z,7.81